createdAt,value
2023-02-03T00:00:18.121Z,66.60
2023-02-03T00:02:50.074Z,66.75
2023-02-03T00:05:25.283Z,66.98
2023-02-03T00:08:00.080Z,66.84
2023-02-03T00:10:32.804Z,67.15
2023-02-03T00:13:07.981Z,67.33
2023-02-03T00:15:39.630Z,67.62
2023-02-03T00:18:16.499Z,67.24
2023-02-03T00:20:48.180Z,67.15
2023-02-03T00:23:22.308Z,67.16
2023-02-03T00:25:56.890Z,67.55
2023-02-03T00:28:31.863Z,67.90
2023-02-03T00:31:04.165Z,67.96
2023-02-03T00:33:35.891Z,67.58
2023-02-03T00:36:09.369Z,68.29
2023-02-03T00:38:49.025Z,68.03
2023-02-03T00:41:21.960Z,68.63
2023-02-03T00:43:57.235Z,68.13
2023-02-03T00:46:29.321Z,68.18
2023-02-03T00:51:59.985Z,68.14
2023-02-03T00:54:33.630Z,68.21
2023-02-03T00:57:05.857Z,68.06
2023-02-03T00:59:39.080Z,68.58
2023-02-03T01:02:10.816Z,67.68
2023-02-03T01:04:45.889Z,67.77
2023-02-03T01:07:17.735Z,67.98
2023-02-03T01:09:49.416Z,68.51
2023-02-03T01:12:22.882Z,68.83
2023-02-03T01:14:54.615Z,68.50
2023-02-03T01:17:30.047Z,68.33
2023-02-03T01:20:02.334Z,69.00
2023-02-03T01:22:34.130Z,69.15
2023-02-03T01:25:06.588Z,68.88
2023-02-03T01:27:43.475Z,69.79
2023-02-03T01:30:18.085Z,69.45
2023-02-03T01:32:49.809Z,69.96
2023-02-03T01:35:21.835Z,69.90
2023-02-03T01:37:53.669Z,70.15
2023-02-03T01:40:25.875Z,70.62
2023-02-03T01:42:57.659Z,72.32
2023-02-03T01:45:31.380Z,72.13
2023-02-03T01:48:04.786Z,72.60
2023-02-03T01:50:37.744Z,72.22
2023-02-03T01:53:18.277Z,72.06
2023-02-03T01:55:50.649Z,73.48
2023-02-03T01:58:29.862Z,73.96
2023-02-03T02:01:03.175Z,73.24
2023-02-03T02:03:46.619Z,74.09
2023-02-03T02:06:22.552Z,74.75
2023-02-03T02:08:57.841Z,74.95
2023-02-03T02:11:30.187Z,74.80
2023-02-03T02:14:03.667Z,75.08
2023-02-03T02:16:53.630Z,75.12
2023-02-03T02:19:59.258Z,75.40
2023-02-03T02:22:43.630Z,75.66
2023-02-03T02:26:07.953Z,75.51
2023-02-03T02:29:17.320Z,75.40
2023-02-03T02:32:15.624Z,75.19
2023-02-03T02:35:24.731Z,75.58
2023-02-03T02:38:24.249Z,76.10
2023-02-03T02:41:17.502Z,76.13
2023-02-03T02:43:55.188Z,75.64
2023-02-03T02:46:52.554Z,76.60
2023-02-03T02:49:44.638Z,76.87
2023-02-03T02:52:18.979Z,76.50
2023-02-03T02:54:57.034Z,76.23
2023-02-03T02:57:36.990Z,76.45
2023-02-03T03:00:12.196Z,76.61
2023-02-03T03:02:44.449Z,77.75
2023-02-03T03:05:19.586Z,77.08
2023-02-03T03:08:04.294Z,77.54
2023-02-03T03:10:43.439Z,78.23
2023-02-03T03:13:25.537Z,78.57
2023-02-03T03:16:07.736Z,78.59
2023-02-03T03:18:51.112Z,79.13
2023-02-03T03:21:28.014Z,78.94
2023-02-03T03:24:04.220Z,77.99
2023-02-03T03:26:58.651Z,78.64
2023-02-03T03:29:46.515Z,78.97
2023-02-03T03:32:19.419Z,79.81
2023-02-03T03:34:52.575Z,78.48
2023-02-03T03:37:35.634Z,78.90
2023-02-03T03:40:18.281Z,79.27
2023-02-03T03:43:03.708Z,79.46
2023-02-03T03:45:47.118Z,79.65
2023-02-03T03:49:00.752Z,79.06
2023-02-03T03:51:35.703Z,79.81
2023-02-03T03:54:14.319Z,78.70
2023-02-03T03:57:02.760Z,79.44
2023-02-03T03:59:39.658Z,78.93
2023-02-03T04:02:14.232Z,79.11
2023-02-03T04:04:48.492Z,79.20
2023-02-03T04:07:44.689Z,79.49
2023-02-03T04:10:38.427Z,79.50
2023-02-03T04:13:12.199Z,79.14
2023-02-03T04:15:43.853Z,79.31
2023-02-03T04:18:16.550Z,79.34
2023-02-03T04:20:48.262Z,79.68
2023-02-03T04:23:19.936Z,79.80
2023-02-03T04:25:51.600Z,78.77
2023-02-03T04:28:26.067Z,79.07
2023-02-03T04:31:01.198Z,79.35
2023-02-03T04:33:32.920Z,80.06
2023-02-03T04:36:07.931Z,80.09
2023-02-03T04:38:39.618Z,79.71
2023-02-03T04:41:14.277Z,79.62
2023-02-03T04:43:48.123Z,80.63
2023-02-03T04:46:20.132Z,79.76
2023-02-03T04:48:51.872Z,79.60
2023-02-03T04:51:26.586Z,80.12
2023-02-03T04:53:58.279Z,79.31
2023-02-03T04:56:29.979Z,80.30
2023-02-03T04:59:01.774Z,79.42
2023-02-03T05:01:33.463Z,79.82
2023-02-03T05:04:05.164Z,79.40
2023-02-03T05:06:36.835Z,80.06
2023-02-03T05:09:09.653Z,79.59
2023-02-03T05:11:44.468Z,79.89
2023-02-03T05:14:25.770Z,79.54
2023-02-03T05:16:57.412Z,79.79
2023-02-03T05:19:29.082Z,79.97
2023-02-03T05:22:00.738Z,79.99
2023-02-03T05:24:36.701Z,79.26
2023-02-03T05:27:14.164Z,79.81
2023-02-03T05:29:45.830Z,80.33
2023-02-03T05:32:17.634Z,80.47
2023-02-03T05:34:49.344Z,79.63
2023-02-03T05:37:21.037Z,79.59
2023-02-03T05:39:53.011Z,78.81
2023-02-03T05:42:24.736Z,79.20
2023-02-03T05:44:58.791Z,79.61
2023-02-03T05:47:33.094Z,79.24
2023-02-03T05:50:06.476Z,79.54
2023-02-03T05:52:38.248Z,79.50
2023-02-03T05:55:09.957Z,79.41
2023-02-03T05:57:42.086Z,79.66
2023-02-03T06:00:16.723Z,79.83
2023-02-03T06:02:58.915Z,79.12
2023-02-03T06:05:32.956Z,79.75
2023-02-03T06:08:09.309Z,80.05
2023-02-03T06:10:41.512Z,79.69
2023-02-03T06:13:15.457Z,80.07
2023-02-03T06:15:47.164Z,80.05
2023-02-03T06:18:18.802Z,80.26
2023-02-03T06:20:53.643Z,80.64
2023-02-03T06:23:27.513Z,80.70
2023-02-03T06:26:00.476Z,80.55
2023-02-03T06:28:33.619Z,80.54
2023-02-03T06:31:08.273Z,80.63
2023-02-03T06:33:45.099Z,80.45
2023-02-03T06:36:16.844Z,80.54
2023-02-03T06:38:48.508Z,80.79
2023-02-03T06:41:22.308Z,80.59
2023-02-03T06:43:54.103Z,80.23
2023-02-03T06:46:29.856Z,80.56
2023-02-03T06:49:01.733Z,80.66
2023-02-03T06:51:33.755Z,80.95
2023-02-03T06:54:05.468Z,81.08
2023-02-03T06:56:39.949Z,80.45
2023-02-03T06:59:11.745Z,81.13
2023-02-03T07:01:46.549Z,81.11
2023-02-03T07:04:21.443Z,81.33
2023-02-03T07:06:57.784Z,80.78
2023-02-03T07:09:29.445Z,80.33
2023-02-03T07:12:08.113Z,80.98
2023-02-03T07:14:41.274Z,80.50
2023-02-03T07:17:12.974Z,80.50
2023-02-03T07:19:46.111Z,80.30
2023-02-03T07:22:22.792Z,80.62
2023-02-03T07:24:54.443Z,80.20
2023-02-03T07:27:27.993Z,79.91
2023-02-03T07:30:00.463Z,79.97
2023-02-03T07:32:34.455Z,79.45
2023-02-03T07:35:06.383Z,79.33
2023-02-03T07:37:41.404Z,79.59
2023-02-03T07:40:14.186Z,79.93
2023-02-03T07:42:50.094Z,80.12
2023-02-03T07:45:24.676Z,79.91
2023-02-03T07:47:59.089Z,79.82
2023-02-03T07:50:33.110Z,80.03
2023-02-03T07:53:11.130Z,80.11
2023-02-03T07:55:43.102Z,80.08
2023-02-03T07:58:17.945Z,79.90
2023-02-03T08:00:49.601Z,79.73
2023-02-03T08:03:24.027Z,79.38
2023-02-03T08:05:55.840Z,79.37
2023-02-03T08:08:31.858Z,79.19
2023-02-03T08:11:03.679Z,79.13
2023-02-03T08:13:35.373Z,78.77
2023-02-03T08:16:08.295Z,78.77
2023-02-03T08:18:40.044Z,78.74
2023-02-03T08:21:11.827Z,79.08
2023-02-03T08:23:46.183Z,78.67
2023-02-03T08:26:18.175Z,78.69
2023-02-03T08:28:53.459Z,78.60
2023-02-03T08:31:25.702Z,78.64
2023-02-03T08:34:02.090Z,78.40
2023-02-03T08:36:33.880Z,78.63
2023-02-03T08:42:06.904Z,78.25
2023-02-03T08:44:41.798Z,78.33
2023-02-03T08:47:13.496Z,77.86
2023-02-03T08:49:46.821Z,77.75
2023-02-03T08:52:19.216Z,77.63
2023-02-03T08:54:54.091Z,77.13
2023-02-03T08:57:25.662Z,76.99
2023-02-03T08:59:59.605Z,77.55
2023-02-03T09:02:31.365Z,77.11
2023-02-03T09:05:03.395Z,77.42
2023-02-03T09:07:35.292Z,77.23
2023-02-03T09:10:10.534Z,77.85
2023-02-03T09:12:42.518Z,77.88
2023-02-03T09:15:17.276Z,77.95
2023-02-03T09:17:48.765Z,77.69
2023-02-03T09:20:20.646Z,78.12
2023-02-03T09:23:01.471Z,78.00
2023-02-03T09:25:37.371Z,78.08
2023-02-03T09:28:17.961Z,78.00
2023-02-03T09:30:49.792Z,77.34
2023-02-03T09:33:21.489Z,77.15
2023-02-03T09:35:56.930Z,77.63
2023-02-03T09:38:35.185Z,77.10
2023-02-03T09:41:44.664Z,76.66
2023-02-03T09:44:22.194Z,77.04
2023-02-03T09:47:00.869Z,76.36
2023-02-03T09:49:46.806Z,76.87
2023-02-03T09:52:25.234Z,76.65
2023-02-03T09:55:30.340Z,76.37
2023-02-03T09:58:23.060Z,76.75
2023-02-03T10:00:58.857Z,76.57
2023-02-03T10:04:03.687Z,77.02
2023-02-03T10:06:41.563Z,76.88
2023-02-03T10:09:38.319Z,77.28
2023-02-03T10:12:19.048Z,77.12
2023-02-03T10:15:11.246Z,76.71
2023-02-03T10:17:57.577Z,76.78
2023-02-03T10:20:44.711Z,76.24
2023-02-03T10:23:26.869Z,76.42
2023-02-03T10:26:05.477Z,76.61
2023-02-03T10:28:40.591Z,75.70
2023-02-03T10:31:21.139Z,75.35
2023-02-03T10:34:04.968Z,75.61
2023-02-03T10:37:02.290Z,74.46
2023-02-03T10:39:41.432Z,74.67
2023-02-03T10:42:13.823Z,75.08
2023-02-03T10:44:54.442Z,74.42
2023-02-03T10:47:40.972Z,73.60
2023-02-03T10:50:21.397Z,73.03
2023-02-03T10:53:23.960Z,73.25
2023-02-03T10:56:10.596Z,72.10
2023-02-03T11:01:49.578Z,72.17
2023-02-03T11:04:33.655Z,71.94
2023-02-03T11:07:21.401Z,71.55
2023-02-03T11:09:53.147Z,71.16
2023-02-03T11:12:24.839Z,70.52
2023-02-03T11:15:05.305Z,70.21
2023-02-03T11:17:39.715Z,70.40
2023-02-03T11:20:16.775Z,70.09
2023-02-03T11:22:48.759Z,69.52
2023-02-03T11:25:38.652Z,70.18
2023-02-03T11:28:14.477Z,69.66
2023-02-03T11:30:46.426Z,70.14
2023-02-03T11:33:27.572Z,70.30
2023-02-03T11:36:05.286Z,70.30
2023-02-03T11:38:37.000Z,69.75
2023-02-03T11:41:17.466Z,69.79
2023-02-03T11:43:56.033Z,70.08
2023-02-03T11:46:27.840Z,69.42
2023-02-03T11:49:38.039Z,70.21
2023-02-03T11:52:24.660Z,68.93
2023-02-03T11:55:26.828Z,68.91
2023-02-03T11:58:12.209Z,68.55
2023-02-03T12:01:11.774Z,68.50
2023-02-03T12:04:33.951Z,68.26
2023-02-03T12:07:27.223Z,68.48
2023-02-03T12:10:07.401Z,67.99
2023-02-03T12:12:45.125Z,67.72
2023-02-03T12:15:32.773Z,68.57
2023-02-03T12:18:16.654Z,67.42
2023-02-03T12:21:10.551Z,68.58
2023-02-03T12:24:04.020Z,68.62
2023-02-03T12:26:50.330Z,68.24
2023-02-03T12:29:27.721Z,67.62
2023-02-03T12:32:07.506Z,68.33
2023-02-03T12:34:46.614Z,68.30
2023-02-03T12:37:55.779Z,68.58
2023-02-03T12:40:39.309Z,68.75
2023-02-03T12:43:31.832Z,69.30
2023-02-03T12:46:08.431Z,68.98
2023-02-03T12:48:58.709Z,69.13
2023-02-03T12:51:37.569Z,70.31
2023-02-03T12:54:23.291Z,70.63
2023-02-03T12:57:00.335Z,70.48
2023-02-03T12:59:36.373Z,71.02
2023-02-03T13:02:26.263Z,70.74
2023-02-03T13:05:05.109Z,70.92
2023-02-03T13:07:46.746Z,71.10
2023-02-03T13:10:29.052Z,70.75
2023-02-03T13:13:03.378Z,71.01
2023-02-03T13:15:43.844Z,70.58
2023-02-03T13:18:40.056Z,70.97
2023-02-03T13:21:12.639Z,70.81
2023-02-03T13:23:44.764Z,73.50
2023-02-03T13:26:54.245Z,71.00
2023-02-03T13:29:35.119Z,70.58
2023-02-03T13:32:28.093Z,70.78
2023-02-03T13:35:43.102Z,70.55
2023-02-03T13:38:41.836Z,70.25
2023-02-03T13:41:18.100Z,70.75
2023-02-03T13:43:52.861Z,70.89
2023-02-03T13:46:29.359Z,70.76
2023-02-03T13:49:04.115Z,70.38
2023-02-03T13:51:37.767Z,69.93
2023-02-03T13:54:30.393Z,70.00
2023-02-03T13:57:09.071Z,70.02
2023-02-03T13:59:45.914Z,70.32
2023-02-03T14:02:25.523Z,69.69
2023-02-03T14:05:02.137Z,70.38
2023-02-03T14:07:35.422Z,70.18
2023-02-03T14:10:16.006Z,69.01
2023-02-03T14:12:50.858Z,69.39
2023-02-03T14:15:26.272Z,69.75
2023-02-03T14:18:41.271Z,69.95
2023-02-03T14:21:20.857Z,70.24
2023-02-03T14:24:03.981Z,69.81
2023-02-03T14:26:47.786Z,70.19
2023-02-03T14:29:29.995Z,70.92
2023-02-03T14:32:09.735Z,70.70
2023-02-03T14:34:51.719Z,71.39
2023-02-03T14:37:26.999Z,72.50
2023-02-03T14:40:23.582Z,72.84
2023-02-03T14:43:28.284Z,73.84
2023-02-03T14:46:18.141Z,73.70
2023-02-03T14:49:14.137Z,74.38
2023-02-03T14:52:03.900Z,74.79
2023-02-03T14:55:15.599Z,75.13
2023-02-03T14:57:49.567Z,75.70
2023-02-03T15:00:25.591Z,75.96
2023-02-03T15:03:21.078Z,76.38
2023-02-03T15:05:57.601Z,76.29
2023-02-03T15:08:47.504Z,76.10
2023-02-03T15:11:27.044Z,75.98
2023-02-03T15:14:34.313Z,76.23
2023-02-03T15:17:24.784Z,76.37
2023-02-03T15:19:56.563Z,76.60
2023-02-03T15:22:31.014Z,76.27
2023-02-03T15:25:15.993Z,76.68
2023-02-03T15:27:51.852Z,77.26
2023-02-03T15:30:28.664Z,77.39
2023-02-03T15:33:01.350Z,77.03
2023-02-03T15:35:40.875Z,77.79
2023-02-03T15:38:37.101Z,77.68
2023-02-03T15:41:24.542Z,77.71
2023-02-03T15:44:01.539Z,77.88
2023-02-03T15:46:44.033Z,77.62
2023-02-03T15:49:32.361Z,78.01
2023-02-03T15:52:16.828Z,77.83
2023-02-03T15:55:05.290Z,76.25
2023-02-03T15:57:40.334Z,75.97
2023-02-03T16:00:29.393Z,76.71
2023-02-03T16:03:05.091Z,75.82
2023-02-03T16:05:44.810Z,76.55
2023-02-03T16:08:49.143Z,76.28
2023-02-03T16:11:40.179Z,75.47
2023-02-03T16:14:32.266Z,75.31
2023-02-03T16:17:06.094Z,74.59
2023-02-03T16:19:41.186Z,74.51
2023-02-03T16:22:30.351Z,75.07
2023-02-03T16:25:22.402Z,75.44
2023-02-03T16:28:36.127Z,75.85
2023-02-03T16:31:34.794Z,76.52
2023-02-03T16:34:37.964Z,77.22
2023-02-03T16:37:39.821Z,77.19
2023-02-03T16:40:36.692Z,77.26
2023-02-03T16:43:32.675Z,77.17
2023-02-03T16:46:30.897Z,77.37
2023-02-03T16:49:21.679Z,76.90
2023-02-03T16:51:59.439Z,76.60
2023-02-03T16:54:31.515Z,76.85
2023-02-03T16:57:03.271Z,76.72
2023-02-03T16:59:34.971Z,76.62
2023-02-03T17:02:07.022Z,77.08
2023-02-03T17:04:40.297Z,76.80
2023-02-03T17:07:11.983Z,76.64
2023-02-03T17:09:43.842Z,77.28
2023-02-03T17:12:15.670Z,77.34
2023-02-03T17:14:47.354Z,77.38
2023-02-03T17:17:19.043Z,77.37
2023-02-03T17:19:50.831Z,77.10
2023-02-03T17:22:27.350Z,77.32
2023-02-03T17:24:59.073Z,76.92
2023-02-03T17:27:30.788Z,77.19
2023-02-03T17:30:04.197Z,76.97
2023-02-03T17:32:36.276Z,76.67
2023-02-03T17:35:08.384Z,76.79
2023-02-03T17:37:40.035Z,76.95
2023-02-03T17:54:21.047Z,76.91
2023-02-03T17:56:53.039Z,76.64
2023-02-03T17:59:24.691Z,76.74
2023-02-03T18:01:56.375Z,76.35
2023-02-03T18:04:28.154Z,76.32
2023-02-03T18:06:59.846Z,76.78
2023-02-03T18:09:34.569Z,76.86
2023-02-03T18:12:06.360Z,77.00
2023-02-03T18:14:38.109Z,77.04
2023-02-03T18:17:11.139Z,76.89
2023-02-03T18:19:46.776Z,76.92
2023-02-03T18:22:22.459Z,76.84
2023-02-03T18:24:55.463Z,76.16
2023-02-03T18:27:30.905Z,75.69
2023-02-03T18:30:06.320Z,75.56
2023-02-03T18:32:38.390Z,74.10
2023-02-03T18:35:13.941Z,72.72
2023-02-03T18:37:45.750Z,72.98
2023-02-03T18:40:17.612Z,72.41
2023-02-03T18:42:50.866Z,72.66
2023-02-03T18:45:23.184Z,72.73
2023-02-03T18:48:01.403Z,71.87
2023-02-03T18:50:33.111Z,71.89
2023-02-03T18:53:04.882Z,71.59
2023-02-03T18:55:45.651Z,71.60
2023-02-03T18:58:17.755Z,70.95
2023-02-03T19:00:50.449Z,69.69
2023-02-03T19:03:24.915Z,69.33
2023-02-03T19:05:56.628Z,69.81
2023-02-03T19:08:28.420Z,68.83
2023-02-03T19:11:00.338Z,68.40
2023-02-03T19:13:35.019Z,67.79
2023-02-03T19:16:08.447Z,67.05
2023-02-03T19:18:42.152Z,66.37
2023-02-03T19:21:17.534Z,66.57
2023-02-03T19:23:49.256Z,64.76
2023-02-03T19:26:21.070Z,65.13
2023-02-03T19:28:52.856Z,64.59
2023-02-03T19:31:24.922Z,64.40
2023-02-03T19:33:58.999Z,63.68
2023-02-03T19:36:32.235Z,63.73
2023-02-03T19:39:04.031Z,62.98
2023-02-03T19:41:36.470Z,62.92
2023-02-03T19:44:08.286Z,63.45
2023-02-03T19:46:43.117Z,61.96
2023-02-03T19:49:18.601Z,61.91
2023-02-03T19:51:50.375Z,62.02
2023-02-03T19:54:22.044Z,61.79
2023-02-03T19:56:57.747Z,61.17
2023-02-03T19:59:33.504Z,60.60
2023-02-03T20:02:14.507Z,60.11
2023-02-03T20:04:50.185Z,58.46
2023-02-03T20:07:23.576Z,58.84
2023-02-03T20:10:01.257Z,57.64
2023-02-03T20:12:32.995Z,56.56
2023-02-03T20:15:08.357Z,56.78
2023-02-03T20:17:57.926Z,56.48
2023-02-03T20:20:33.930Z,56.50
2023-02-03T20:23:09.894Z,56.77
2023-02-03T20:25:42.729Z,57.27
2023-02-03T20:28:14.533Z,57.12
2023-02-03T20:30:46.810Z,56.66
2023-02-03T20:33:19.995Z,56.33
2023-02-03T20:35:54.459Z,56.28
2023-02-03T20:38:29.144Z,56.37
2023-02-03T20:41:00.782Z,56.65
2023-02-03T20:43:32.513Z,56.83
2023-02-03T20:46:15.943Z,57.16
2023-02-03T20:48:47.698Z,56.73
2023-02-03T20:51:21.081Z,57.43
2023-02-03T20:53:53.346Z,58.31
2023-02-03T20:56:26.528Z,58.61
2023-02-03T20:59:01.262Z,59.69
2023-02-03T21:01:33.240Z,60.55
2023-02-03T21:04:33.925Z,60.36
2023-02-03T21:07:18.120Z,60.88
2023-02-03T21:09:52.365Z,60.82
2023-02-03T21:12:28.353Z,61.40
2023-02-03T21:15:00.442Z,61.03
2023-02-03T21:17:35.726Z,60.73
2023-02-03T21:20:22.109Z,60.28
2023-02-03T21:22:55.053Z,60.61
2023-02-03T21:25:29.730Z,60.17
2023-02-03T21:28:05.544Z,59.71
2023-02-03T21:30:38.560Z,59.45
2023-02-03T21:33:29.313Z,58.73
2023-02-03T21:36:01.966Z,58.56
2023-02-03T21:38:33.883Z,58.17
2023-02-03T21:41:16.119Z,58.36
2023-02-03T21:43:51.743Z,58.58
2023-02-03T21:46:34.233Z,58.59
2023-02-03T21:49:07.498Z,57.83
2023-02-03T21:51:39.458Z,58.01
2023-02-03T21:54:26.960Z,57.97
2023-02-03T21:56:59.445Z,57.94
2023-02-03T21:59:41.516Z,58.06
2023-02-03T22:02:42.790Z,57.85
2023-02-03T22:05:16.447Z,58.34
2023-02-03T22:07:48.166Z,57.82
2023-02-03T22:10:19.872Z,58.38
2023-02-03T22:12:51.516Z,57.63
2023-02-03T22:15:23.262Z,57.89
2023-02-03T22:17:54.957Z,58.07
2023-02-03T22:20:29.130Z,57.85
2023-02-03T22:23:01.043Z,58.60
2023-02-03T22:25:32.910Z,58.55
2023-02-03T22:28:10.034Z,58.58
2023-02-03T22:30:42.319Z,58.75
2023-02-03T22:33:14.049Z,58.75
2023-02-03T22:35:46.251Z,58.70
2023-02-03T22:38:17.944Z,58.49
2023-02-03T22:40:55.985Z,58.58
2023-02-03T22:43:29.478Z,58.73
2023-02-03T22:46:06.775Z,58.81
2023-02-03T22:48:38.560Z,58.77
2023-02-03T22:51:10.252Z,58.97
2023-02-03T22:53:45.053Z,59.35
2023-02-03T22:56:18.759Z,58.65
2023-02-03T22:58:50.477Z,59.01
2023-02-03T23:01:22.192Z,59.30
2023-02-03T23:03:53.863Z,59.34
2023-02-03T23:06:31.584Z,59.41
2023-02-03T23:09:03.482Z,59.14
2023-02-03T23:11:38.257Z,59.22
2023-02-03T23:14:10.573Z,59.38
2023-02-03T23:16:42.640Z,59.37
2023-02-03T23:19:14.524Z,58.90
2023-02-03T23:21:46.395Z,59.14
2023-02-03T23:24:19.094Z,58.92
2023-02-03T23:26:50.900Z,59.24
2023-02-03T23:29:22.586Z,59.46
2023-02-03T23:31:54.405Z,59.71
2023-02-03T23:34:44.755Z,59.70
2023-02-03T23:37:16.964Z,59.33
2023-02-03T23:39:50.474Z,59.62
2023-02-03T23:42:22.651Z,59.54
2023-02-03T23:44:56.345Z,59.88
2023-02-03T23:47:29.420Z,60.02
2023-02-03T23:50:01.116Z,60.34
2023-02-03T23:52:35.813Z,60.17
2023-02-03T23:55:15.809Z,60.08
2023-02-03T23:57:47.689Z,60.10
